WetterOnline ( https://www.wetteronline.de )

Wetter aktuell Paderborn

Aktuelles Wetter: Bad Lippspringe (158m)

6-stündlich | Neueste Meldungen
Ortszeit Temperatur Wetter
Di, 10.12. 7:00 -0.5° C fast wolkenlos
Di, 10.12. 1:00 2.3° C fast wolkenlos
Mo, 09.12. 19:00 5.8° C Sprühregen
Mo, 09.12. 13:00 5.3° C leichter Regen
Mo, 09.12. 7:00 6.6° C bedeckt
Mo, 09.12. 1:00 6.7° C bewölkt
So, 08.12. 19:00 7.3° C leicht bewölkt
So, 08.12. 13:00 11.0° C Sprühregen
Ortszeit Temperatur Wetter
Di, 10.12. 11:30 3.7° C wolkig
Di, 10.12. 11:20 3.7° C wolkig
Di, 10.12. 11:10 3.0° C wolkig
Di, 10.12. 11:00 2.3° C leicht bewölkt
Di, 10.12. 10:50 2.3° C leicht bewölkt
Di, 10.12. 10:40 2.1° C wolkenlos
Di, 10.12. 10:30 1.2° C fast wolkenlos
Di, 10.12. 10:00 0.9° C fast wolkenlos
Di, 10.12. 9:30 0.5° C wolkenlos
Di, 10.12. 9:00 0.1° C fast wolkenlos
Di, 10.12. 8:30 -0.1° C bewölkt
Ortszeit Relative Feuchte Sichtweite
Di, 10.12. 7:00 93% 17 km
Di, 10.12. 1:00 87% 25 km
Mo, 09.12. 19:00 89% 30 km
Mo, 09.12. 13:00 89% 9 km
Mo, 09.12. 7:00 72% 50 km
Mo, 09.12. 1:00 75% >70 km
So, 08.12. 19:00 81% 30 km
So, 08.12. 13:00 75% 22 km
Ortszeit Relative Feuchte Sichtweite
Di, 10.12. 11:30 78% 26 km
Di, 10.12. 11:20 78% -
Di, 10.12. 11:10 78% -
Di, 10.12. 11:00 79% 23 km
Di, 10.12. 10:50 79% -
Di, 10.12. 10:40 82% -
Di, 10.12. 10:30 85% 18 km
Di, 10.12. 10:00 86% 19 km
Di, 10.12. 9:30 90% 18 km
Di, 10.12. 9:00 92% 17 km
Di, 10.12. 8:30 94% 14 km
Ortszeit Niederschlagsmenge Niederschlagsart
Di, 10.12. 7:00 0.2 l/m2 in 12 Std. -
Di, 10.12. 1:00 0.2 l/m2 in 6 Std. Regen
Mo, 09.12. 19:00 6 l/m2 in 12 Std. Regen
Mo, 09.12. 13:00 3 l/m2 in 6 Std. Regen
Mo, 09.12. 7:00 0.6 l/m2 in 12 Std. Regen
Mo, 09.12. 1:00 0.6 l/m2 in 6 Std. Regen
So, 08.12. 19:00 2 l/m2 in 12 Std. Regen
So, 08.12. 13:00 0.1 l/m2 in 6 Std. Regen
Ortszeit Niederschlagsmenge Niederschlagsart
Di, 10.12. 11:30 0.0 l/m2 in 1 Std. -
Di, 10.12. 11:20 keine Meldung -
Di, 10.12. 11:10 keine Meldung -
Di, 10.12. 11:00 0.0 l/m2 in 1 Std. -
Di, 10.12. 10:50 keine Meldung -
Di, 10.12. 10:40 keine Meldung -
Di, 10.12. 10:30 0.0 l/m2 in 1 Std. -
Di, 10.12. 10:00 0.0 l/m2 in 1 Std. -
Di, 10.12. 9:30 0.0 l/m2 in 1 Std. -
Di, 10.12. 9:00 0.0 l/m2 in 1 Std. -
Di, 10.12. 8:30 0.0 l/m2 in 1 Std. -
Ortszeit Stärke Spitze Richtung
km/h Bft. km/h Grad Sektor
Di, 10.12. 7:00 7 2 14 150° SO
Di, 10.12. 1:00 11 2 32 270° W
Mo, 09.12. 19:00 15 3 39 330° NW
Mo, 09.12. 13:00 22 4 50 220° SW
Mo, 09.12. 7:00 18 3 43 200° S
Mo, 09.12. 1:00 25 4 47 230° SW
So, 08.12. 19:00 15 3 54 230° SW
So, 08.12. 13:00 29 5 50 220° SW
Ortszeit Stärke Spitze Richtung
km/h Bft. km/h Grad Sektor
Di, 10.12. 11:30 4 1 7 140° SO
Di, 10.12. 11:20 4 1 - 140° SO
Di, 10.12. 11:10 4 1 - 130° SO
Di, 10.12. 11:00 6 1 7 140° SO
Di, 10.12. 10:50 6 1 - 140° SO
Di, 10.12. 10:40 4 1 - 130° SO
Di, 10.12. 10:30 6 1 7 110° O
Di, 10.12. 10:00 7 2 11 130° SO
Di, 10.12. 9:30 6 1 11 140° SO
Di, 10.12. 9:00 7 2 11 160° S
Di, 10.12. 8:30 7 2 11 150° SO
Ortszeit Untergrenze Bedeckung Gattung
total tief tief mittel hoch
Di, 10.12. 7:00 1500 m 1/8 1/8 - - -
Di, 10.12. 1:00 1020 m 1/8 1/8 - - -
Mo, 09.12. 19:00 270 m 7/8 7/8 - - -
Mo, 09.12. 13:00 360 m 7/8 7/8 - - -
Mo, 09.12. 7:00 1200 m 8/8 8/8 - - -
Mo, 09.12. 1:00 840 m 8/8 7/8 - - -
So, 08.12. 19:00 840 m 3/8 3/8 - - -
So, 08.12. 13:00 720 m 8/8 8/8 - - -
Ortszeit Bedeckungsgrad in Achtel und Wolkenuntergrenze
Di, 10.12. 11:30 5(1500m)
Di, 10.12. 11:20 5(1500m)
Di, 10.12. 11:10 4(1500m) 6(9000m)
Di, 10.12. 11:00 3(9000m) 3(9000m)
Di, 10.12. 10:50 3(9000m)
Di, 10.12. 10:40 keine Wolken
Di, 10.12. 10:30 1(450m)
Di, 10.12. 10:00 1(420m)
Di, 10.12. 9:30 keine Wolken
Di, 10.12. 9:00 1(1500m)
Di, 10.12. 8:30 7(1500m)
Ortszeit Luftdruck NN (hPa) Tendenz (hPa in 3 Std.)
Di, 10.12. 7:00 1024 + 1,9
Di, 10.12. 1:00 1018 + 4,4
Mo, 09.12. 19:00 1007 + 5,7
Mo, 09.12. 13:00 998 + 1,4
Mo, 09.12. 7:00 997 - 1,0
Mo, 09.12. 1:00 999 - 0,2
So, 08.12. 19:00 1000 - 0,1
So, 08.12. 13:00 1000 - 1,3
Ortszeit Luftdruck NN (hPa) Tendenz (hPa in 3 Std.)
Di, 10.12. 11:30 1026 + 0,9
Di, 10.12. 11:20 1026 keine Meldung
Di, 10.12. 11:10 1026 keine Meldung
Di, 10.12. 11:00 1026 + 1,4
Di, 10.12. 10:50 1026 keine Meldung
Di, 10.12. 10:40 1026 keine Meldung
Di, 10.12. 10:30 1026 + 1,9
Di, 10.12. 10:00 1026 + 2,1
Di, 10.12. 9:30 1026 + 2,2
Di, 10.12. 9:00 1026 + 1,7
Di, 10.12. 8:30 1025 + 1,9
Ortszeit Schneehöhe (cm)
Di, 10.12. 7:00 0
Di, 10.12. 1:00 0
Mo, 09.12. 19:00 0
Mo, 09.12. 13:00 0
Mo, 09.12. 7:00 0
Mo, 09.12. 1:00 0
So, 08.12. 19:00 0
So, 08.12. 13:00 0
Ortszeit Schneehöhe (cm)
Di, 10.12. 11:30 0
Di, 10.12. 11:20 0
Di, 10.12. 11:10 0
Di, 10.12. 11:00 0
Di, 10.12. 10:50 0
Di, 10.12. 10:40 0
Di, 10.12. 10:30 0
Di, 10.12. 10:00 0
Di, 10.12. 9:30 0
Di, 10.12. 9:00 0
Di, 10.12. 8:30 0
Link zu dieser Seite / Seite empfehlen

Das Wetter in ...